createdAt,value
2022-08-17T00:02:26.734Z,42.13
2022-08-17T00:04:51.540Z,42.10
2022-08-17T00:07:17.974Z,42.13
2022-08-17T00:09:44.407Z,42.14
2022-08-17T00:12:42.807Z,42.15
2022-08-17T00:14:37.229Z,42.20
2022-08-17T00:17:03.655Z,42.22
2022-08-17T00:19:30.052Z,42.15
2022-08-17T00:22:34.560Z,42.17
2022-08-17T00:24:22.881Z,42.22
2022-08-17T00:26:49.429Z,42.23
2022-08-17T00:29:19.682Z,42.21
2022-08-17T00:31:42.235Z,42.22
2022-08-17T00:34:08.687Z,42.22
2022-08-17T00:36:35.177Z,42.21
2022-08-17T00:39:01.589Z,42.21
2022-08-17T00:41:27.996Z,42.24
2022-08-17T00:43:54.429Z,42.21
2022-08-17T00:46:20.817Z,42.21
2022-08-17T00:48:47.256Z,42.22
2022-08-17T00:51:13.675Z,42.21
2022-08-17T00:53:40.084Z,42.23
2022-08-17T00:56:06.543Z,42.26
2022-08-17T00:58:36.661Z,42.21
2022-08-17T01:00:59.433Z,42.34
2022-08-17T01:03:25.770Z,42.27
2022-08-17T01:05:52.170Z,42.25
2022-08-17T01:08:18.580Z,42.24
2022-08-17T01:10:58.415Z,42.28
2022-08-17T01:13:11.453Z,42.30
2022-08-17T01:15:37.890Z,42.27
2022-08-17T01:18:04.295Z,42.30
2022-08-17T01:20:30.713Z,42.31
2022-08-17T01:22:57.129Z,42.44
2022-08-17T01:25:23.522Z,42.39
2022-08-17T01:27:49.997Z,42.35
2022-08-17T01:30:58.596Z,42.36
2022-08-17T01:32:42.812Z,42.38
2022-08-17T01:35:09.251Z,42.34
2022-08-17T01:37:35.659Z,42.36
2022-08-17T01:40:02.179Z,42.37
2022-08-17T01:42:28.531Z,42.40
2022-08-17T01:44:54.939Z,42.33
2022-08-17T01:47:21.372Z,42.35
2022-08-17T01:49:47.778Z,42.38
2022-08-17T01:52:14.189Z,42.37
2022-08-17T01:54:40.617Z,42.36
2022-08-17T01:57:07.028Z,42.33
2022-08-17T01:59:33.447Z,42.53
2022-08-17T02:01:59.853Z,42.39
2022-08-17T02:04:26.320Z,42.41
2022-08-17T02:06:54.573Z,42.26
2022-08-17T02:09:19.190Z,42.14
2022-08-17T02:11:46.270Z,42.23
2022-08-17T02:14:12.022Z,42.27
2022-08-17T02:16:38.444Z,42.31
2022-08-17T02:19:05.069Z,42.31
2022-08-17T02:21:31.491Z,42.32
2022-08-17T02:23:57.895Z,42.25
2022-08-17T02:26:25.955Z,42.12
2022-08-17T02:28:50.710Z,42.08
2022-08-17T02:31:17.119Z,42.09
2022-08-17T02:33:43.831Z,42.04
2022-08-17T02:36:09.952Z,41.93
2022-08-17T02:38:37.446Z,41.85
2022-08-17T02:41:04.052Z,41.79
2022-08-17T02:43:30.429Z,41.76
2022-08-17T02:45:56.818Z,41.82
2022-08-17T02:48:30.437Z,41.82
2022-08-17T02:50:49.620Z,41.79
2022-08-17T02:53:16.004Z,41.76
2022-08-17T02:55:42.401Z,41.79
2022-08-17T02:58:08.775Z,41.81
2022-08-17T03:00:35.171Z,41.76
2022-08-17T03:03:01.577Z,41.76
2022-08-17T03:05:27.957Z,41.76
2022-08-17T03:07:54.368Z,41.79
2022-08-17T03:10:20.761Z,41.81
2022-08-17T03:12:47.303Z,41.79
2022-08-17T03:15:13.627Z,41.79
2022-08-17T03:17:40.022Z,41.82
2022-08-17T03:20:06.412Z,41.75
2022-08-17T03:22:36.165Z,41.73
2022-08-17T03:25:00.382Z,41.70
2022-08-17T03:27:25.574Z,41.64
2022-08-17T03:29:51.984Z,41.73
2022-08-17T03:32:18.360Z,41.63
2022-08-17T03:34:44.750Z,41.61
2022-08-17T03:37:11.131Z,41.60
2022-08-17T03:39:37.567Z,41.57
2022-08-17T03:42:03.956Z,41.54
2022-08-17T03:44:30.337Z,41.49
2022-08-17T03:46:56.725Z,41.46
2022-08-17T03:49:23.121Z,41.44
2022-08-17T03:51:49.566Z,41.44
2022-08-17T03:54:15.919Z,41.44
2022-08-17T03:56:42.306Z,41.37
2022-08-17T03:59:08.693Z,41.34
2022-08-17T04:01:35.219Z,41.36
2022-08-17T04:04:01.495Z,41.32
2022-08-17T04:06:27.905Z,41.36
2022-08-17T04:08:54.318Z,41.50
2022-08-17T04:11:21.656Z,41.78
2022-08-17T04:13:47.114Z,42.18
2022-08-17T04:16:13.502Z,42.29
2022-08-17T04:18:39.892Z,45.99
2022-08-17T04:21:06.312Z,43.21
2022-08-17T04:23:32.662Z,43.19
2022-08-17T04:25:59.041Z,43.16
2022-08-17T04:28:25.423Z,43.30
2022-08-17T04:30:51.804Z,43.21
2022-08-17T04:33:18.195Z,43.04
2022-08-17T04:35:44.573Z,42.99
2022-08-17T04:38:10.993Z,42.90
2022-08-17T04:40:37.368Z,42.89
2022-08-17T04:43:03.781Z,42.76
2022-08-17T04:45:32.273Z,42.70
2022-08-17T04:47:56.592Z,42.61
2022-08-17T04:50:22.995Z,42.64
2022-08-17T04:52:49.387Z,42.55
2022-08-17T04:55:15.762Z,42.54
2022-08-17T04:57:45.069Z,42.46
2022-08-17T05:00:09.529Z,42.59
2022-08-17T05:02:34.918Z,42.66
2022-08-17T05:05:01.294Z,42.59
2022-08-17T05:07:31.399Z,42.57
2022-08-17T05:09:54.259Z,42.62
2022-08-17T05:12:20.687Z,42.56
2022-08-17T05:14:47.120Z,42.62
2022-08-17T05:17:13.511Z,42.71
2022-08-17T05:19:39.886Z,42.69
2022-08-17T05:22:06.280Z,42.79
2022-08-17T05:24:38.617Z,42.83
2022-08-17T05:27:06.033Z,42.96
2022-08-17T05:29:35.108Z,42.95
2022-08-17T05:31:51.827Z,43.00
2022-08-17T05:34:18.210Z,43.06
2022-08-17T05:36:44.682Z,42.98
2022-08-17T05:39:15.784Z,43.05
2022-08-17T05:41:37.360Z,43.14
2022-08-17T05:44:05.573Z,43.08
2022-08-17T05:46:30.175Z,43.30
2022-08-17T05:48:56.550Z,43.25
2022-08-17T05:51:22.970Z,43.34
2022-08-17T05:53:49.573Z,43.38
2022-08-17T05:56:29.665Z,43.35
2022-08-17T05:58:42.398Z,43.47
2022-08-17T06:01:08.829Z,43.55
2022-08-17T06:03:35.172Z,43.57
2022-08-17T06:06:01.599Z,43.66
2022-08-17T06:08:28.061Z,43.72
2022-08-17T06:10:54.478Z,43.78
2022-08-17T06:13:20.888Z,43.82
2022-08-17T06:15:47.288Z,43.84
2022-08-17T06:18:17.270Z,43.98
2022-08-17T06:20:40.062Z,44.01
2022-08-17T06:23:06.439Z,44.14
2022-08-17T06:25:32.839Z,44.25
2022-08-17T06:27:59.226Z,44.36
2022-08-17T06:30:25.621Z,44.53
2022-08-17T06:32:52.250Z,44.62
2022-08-17T06:35:18.430Z,44.70
2022-08-17T06:37:44.868Z,44.85
2022-08-17T06:40:11.333Z,44.98
2022-08-17T06:42:59.889Z,44.98
2022-08-17T06:45:04.067Z,45.25
2022-08-17T06:47:30.572Z,45.33
2022-08-17T06:49:56.967Z,45.20
2022-08-17T06:52:46.047Z,45.14
2022-08-17T06:54:49.837Z,45.16
2022-08-17T06:57:16.223Z,45.17
2022-08-17T06:59:55.515Z,45.11
2022-08-17T07:02:09.001Z,45.06
2022-08-17T07:04:35.423Z,45.16
2022-08-17T07:07:01.801Z,45.06
2022-08-17T07:09:28.226Z,45.16
2022-08-17T07:11:54.596Z,45.12
2022-08-17T07:14:20.988Z,45.11
2022-08-17T07:16:47.421Z,45.17
2022-08-17T07:19:13.764Z,45.08
2022-08-17T07:21:40.187Z,45.03
2022-08-17T07:24:06.576Z,45.01
2022-08-17T07:26:32.971Z,44.99
2022-08-17T07:28:59.385Z,44.99
2022-08-17T07:31:25.777Z,44.99
2022-08-17T07:33:52.251Z,45.03
2022-08-17T07:36:18.642Z,45.13
2022-08-17T07:38:45.040Z,45.14
2022-08-17T07:41:11.429Z,45.27
2022-08-17T07:43:37.932Z,45.36
2022-08-17T07:46:04.306Z,45.41
2022-08-17T07:48:30.698Z,45.49
2022-08-17T07:50:57.098Z,45.70
2022-08-17T07:53:23.476Z,45.70
2022-08-17T07:55:49.899Z,45.80
2022-08-17T07:58:16.318Z,45.90
2022-08-17T08:00:42.711Z,45.80
2022-08-17T08:03:09.118Z,45.82
2022-08-17T08:05:50.083Z,45.98
2022-08-17T08:08:01.948Z,45.92
2022-08-17T08:10:28.331Z,45.74
2022-08-17T08:12:54.753Z,45.70
2022-08-17T08:15:21.252Z,45.68
2022-08-17T08:17:47.682Z,45.69
2022-08-17T08:20:50.852Z,45.75
2022-08-17T08:22:42.593Z,45.72
2022-08-17T08:25:08.990Z,45.77
2022-08-17T08:27:35.393Z,45.80
2022-08-17T08:30:01.771Z,45.80
2022-08-17T08:32:28.164Z,45.78
2022-08-17T08:35:01.716Z,45.88
2022-08-17T08:37:32.617Z,45.85
2022-08-17T08:39:47.396Z,45.75
2022-08-17T08:42:13.707Z,45.61
2022-08-17T08:44:59.958Z,45.59
2022-08-17T08:47:06.492Z,45.55
2022-08-17T08:50:01.175Z,45.44
2022-08-17T08:51:59.256Z,45.59
2022-08-17T08:54:27.026Z,45.60
2022-08-17T08:57:21.547Z,45.41
2022-08-17T08:59:18.399Z,45.54
2022-08-17T09:01:44.908Z,45.49
2022-08-17T09:04:24.068Z,45.56
2022-08-17T09:06:39.779Z,45.50
2022-08-17T09:09:04.032Z,45.72
2022-08-17T09:11:30.424Z,45.75
2022-08-17T09:13:56.874Z,45.58
2022-08-17T09:16:23.261Z,45.72
2022-08-17T09:19:02.720Z,45.81
2022-08-17T09:21:18.170Z,45.82
2022-08-17T09:23:42.534Z,45.78
2022-08-17T09:26:09.058Z,45.85
2022-08-17T09:28:35.450Z,45.90
2022-08-17T09:31:01.838Z,45.92
2022-08-17T09:33:28.221Z,45.56
2022-08-17T09:35:54.607Z,45.82
2022-08-17T09:38:21.108Z,45.79
2022-08-17T09:40:47.488Z,45.65
2022-08-17T09:43:13.938Z,45.43
2022-08-17T09:45:40.330Z,45.61
2022-08-17T09:48:07.923Z,45.33
2022-08-17T09:51:03.894Z,45.40
2022-08-17T09:52:59.512Z,45.29
2022-08-17T09:55:25.903Z,45.40
2022-08-17T09:57:52.391Z,45.39
2022-08-17T10:00:18.725Z,45.27
2022-08-17T10:02:45.112Z,45.16
2022-08-17T10:05:11.567Z,45.07
2022-08-17T10:07:37.957Z,45.08
2022-08-17T10:10:04.361Z,45.08
2022-08-17T10:12:30.751Z,45.08
2022-08-17T10:14:57.132Z,45.14
2022-08-17T10:17:23.633Z,45.14
2022-08-17T10:19:50.021Z,45.04
2022-08-17T10:22:35.390Z,45.10
2022-08-17T10:25:01.861Z,45.07
2022-08-17T10:27:11.424Z,45.18
2022-08-17T10:29:48.519Z,45.16
2022-08-17T10:32:04.230Z,45.29
2022-08-17T10:34:30.590Z,45.28
2022-08-17T10:36:56.996Z,45.43
2022-08-17T10:39:23.388Z,45.32
2022-08-17T10:41:49.784Z,45.27
2022-08-17T10:44:37.094Z,45.27
2022-08-17T10:46:42.574Z,45.27
2022-08-17T10:49:08.970Z,45.14
2022-08-17T10:51:35.360Z,45.11
2022-08-17T10:54:01.763Z,45.00
2022-08-17T10:56:28.208Z,44.95
2022-08-17T10:58:54.600Z,44.99
2022-08-17T11:01:21.022Z,45.03
2022-08-17T11:03:47.384Z,45.02
2022-08-17T11:06:13.812Z,44.88
2022-08-17T11:08:40.181Z,44.82
2022-08-17T11:11:06.575Z,44.74
2022-08-17T11:13:32.974Z,44.56
2022-08-17T11:16:02.366Z,44.65
2022-08-17T11:18:25.862Z,44.60
2022-08-17T11:20:52.332Z,44.52
2022-08-17T11:23:18.728Z,44.55
2022-08-17T11:25:45.201Z,44.45
2022-08-17T11:28:11.607Z,44.30
2022-08-17T11:30:38.004Z,44.37
2022-08-17T11:33:04.407Z,44.34
2022-08-17T11:35:30.865Z,44.25
2022-08-17T11:37:57.213Z,44.11
2022-08-17T11:40:23.620Z,43.92
2022-08-17T11:42:50.142Z,43.87
2022-08-17T11:45:19.505Z,43.93
2022-08-17T11:47:42.814Z,44.00
2022-08-17T11:50:09.307Z,44.14
2022-08-17T11:52:35.637Z,44.21
2022-08-17T11:55:17.995Z,44.42
2022-08-17T11:57:28.498Z,44.36
2022-08-17T11:59:54.893Z,44.52
2022-08-17T12:02:21.394Z,44.51
2022-08-17T12:04:48.023Z,44.69
2022-08-17T12:07:14.366Z,44.62
2022-08-17T12:09:40.899Z,44.68
2022-08-17T12:12:12.682Z,44.59
2022-08-17T12:15:05.842Z,44.65
2022-08-17T12:17:00.079Z,44.58
2022-08-17T12:19:26.468Z,44.53
2022-08-17T12:21:52.871Z,44.48
2022-08-17T12:24:19.404Z,44.46
2022-08-17T12:26:45.800Z,44.43
2022-08-17T12:29:39.036Z,44.34
2022-08-17T12:31:38.600Z,44.59
2022-08-17T12:34:05.005Z,44.53
2022-08-17T12:36:31.381Z,44.40
2022-08-17T12:38:57.790Z,44.51
2022-08-17T12:41:24.199Z,44.54
2022-08-17T12:43:50.608Z,44.59
2022-08-17T12:46:16.984Z,44.88
2022-08-17T12:48:58.667Z,44.54
2022-08-17T12:51:09.852Z,44.50
2022-08-17T12:53:36.241Z,44.90
2022-08-17T12:56:02.622Z,45.05
2022-08-17T12:58:29.051Z,45.02
2022-08-17T13:00:55.448Z,45.11
2022-08-17T13:03:21.827Z,44.99
2022-08-17T13:05:48.214Z,45.06
2022-08-17T13:08:14.612Z,44.98
2022-08-17T13:10:40.996Z,45.06
2022-08-17T13:13:07.452Z,44.85
2022-08-17T13:15:33.851Z,44.98
2022-08-17T13:18:00.240Z,44.84
2022-08-17T13:20:26.653Z,44.92
2022-08-17T13:22:53.042Z,44.68
2022-08-17T13:25:19.518Z,44.75
2022-08-17T13:27:45.946Z,44.82
2022-08-17T13:30:12.300Z,44.67
2022-08-17T13:32:39.907Z,44.79
2022-08-17T13:35:15.209Z,44.57
2022-08-17T13:37:31.491Z,44.50
2022-08-17T13:39:57.934Z,44.56
2022-08-17T13:42:24.263Z,44.65
2022-08-17T13:44:50.679Z,44.73
2022-08-17T13:47:17.040Z,44.67
2022-08-17T13:49:48.793Z,44.78
2022-08-17T13:52:09.945Z,44.76
2022-08-17T13:54:36.329Z,44.80
2022-08-17T13:57:02.722Z,44.75
2022-08-17T13:59:53.642Z,44.70
2022-08-17T14:01:55.667Z,44.79
2022-08-17T14:04:22.013Z,44.82
2022-08-17T14:06:53.416Z,44.81
2022-08-17T14:09:14.925Z,44.74
2022-08-17T14:11:41.307Z,44.74
2022-08-17T14:14:07.695Z,44.85
2022-08-17T14:16:34.204Z,44.69
2022-08-17T14:19:00.577Z,44.89
2022-08-17T14:21:28.615Z,44.85
2022-08-17T14:23:54.932Z,44.85
2022-08-17T14:26:19.788Z,44.95
2022-08-17T14:28:56.324Z,45.07
2022-08-17T14:31:12.588Z,44.97
2022-08-17T14:33:38.965Z,44.92
2022-08-17T14:36:05.369Z,44.91
2022-08-17T14:38:31.754Z,44.95
2022-08-17T14:40:58.142Z,44.95
2022-08-17T14:43:24.527Z,44.91
2022-08-17T14:45:50.915Z,44.88
2022-08-17T14:48:17.300Z,44.82
2022-08-17T14:50:43.763Z,44.91
2022-08-17T14:53:10.484Z,44.89
2022-08-17T14:55:36.892Z,44.86
2022-08-17T14:58:03.266Z,44.79
2022-08-17T15:00:29.808Z,44.73
2022-08-17T15:02:56.182Z,44.73
2022-08-17T15:05:22.568Z,44.71
2022-08-17T15:07:48.976Z,44.62
2022-08-17T15:10:15.354Z,44.50
2022-08-17T15:12:41.762Z,44.40
2022-08-17T15:15:08.170Z,44.30
2022-08-17T15:17:45.277Z,44.28
2022-08-17T15:20:00.935Z,44.33
2022-08-17T15:22:29.246Z,44.41
2022-08-17T15:24:53.790Z,44.20
2022-08-17T15:27:31.510Z,44.24
2022-08-17T15:29:46.570Z,44.15
2022-08-17T15:32:12.977Z,44.22
2022-08-17T15:34:39.366Z,44.25
2022-08-17T15:37:05.752Z,44.27
2022-08-17T15:39:32.189Z,44.32
2022-08-17T15:41:58.932Z,44.33
2022-08-17T15:44:32.399Z,44.34
2022-08-17T15:46:51.326Z,44.37
2022-08-17T15:49:17.715Z,44.31
2022-08-17T15:51:44.107Z,44.30
2022-08-17T15:54:18.828Z,44.31
2022-08-17T15:56:36.956Z,44.45
2022-08-17T15:59:03.346Z,44.37
2022-08-17T16:02:25.248Z,44.38
2022-08-17T16:04:03.954Z,44.40
2022-08-17T16:06:22.498Z,44.49
2022-08-17T16:08:48.947Z,44.50
2022-08-17T16:11:15.463Z,44.47
2022-08-17T16:13:41.852Z,44.50
2022-08-17T16:16:08.243Z,44.26
2022-08-17T16:18:34.622Z,44.11
2022-08-17T16:21:01.009Z,44.05
2022-08-17T16:23:27.391Z,43.95
2022-08-17T16:25:54.529Z,43.94
2022-08-17T16:28:20.156Z,44.23
2022-08-17T16:30:46.543Z,44.39
2022-08-17T16:33:12.948Z,44.39
2022-08-17T16:35:39.370Z,44.41
2022-08-17T16:38:07.219Z,44.41
2022-08-17T16:40:35.773Z,44.37
2022-08-17T16:42:58.609Z,44.35
2022-08-17T16:45:25.002Z,44.32
2022-08-17T16:47:52.448Z,44.27
2022-08-17T16:50:17.793Z,44.28
2022-08-17T16:52:44.268Z,44.15
2022-08-17T16:55:10.605Z,44.15
2022-08-17T16:57:36.994Z,44.15
2022-08-17T17:00:03.371Z,43.96
2022-08-17T17:02:29.768Z,43.85
2022-08-17T17:04:56.264Z,43.79
2022-08-17T17:07:22.649Z,43.67
2022-08-17T17:09:49.032Z,43.63
2022-08-17T17:12:15.424Z,43.57
2022-08-17T17:14:41.815Z,43.47
2022-08-17T17:17:08.197Z,43.40
2022-08-17T17:19:35.780Z,43.24
2022-08-17T17:22:00.965Z,43.11
2022-08-17T17:24:28.868Z,43.06
2022-08-17T17:26:54.306Z,42.91
2022-08-17T17:29:20.689Z,42.82
2022-08-17T17:31:47.078Z,42.66
2022-08-17T17:34:13.570Z,42.61
2022-08-17T17:36:39.969Z,42.56
2022-08-17T17:39:06.360Z,42.52
2022-08-17T17:41:32.763Z,42.44
2022-08-17T17:44:01.871Z,42.30
2022-08-17T17:46:28.713Z,42.22
2022-08-17T17:48:51.924Z,42.16
2022-08-17T17:52:06.806Z,42.02
2022-08-17T17:53:44.710Z,41.98
2022-08-17T17:56:43.125Z,41.92
2022-08-17T17:58:37.591Z,41.80
2022-08-17T18:01:03.988Z,41.74
2022-08-17T18:03:30.401Z,41.63
2022-08-17T18:05:56.787Z,41.57
2022-08-17T18:08:31.987Z,41.52
2022-08-17T18:10:49.663Z,41.50
2022-08-17T18:13:16.054Z,41.43
2022-08-17T18:15:42.433Z,41.37
2022-08-17T18:18:08.822Z,41.37
2022-08-17T18:20:43.489Z,41.31
2022-08-17T18:23:01.644Z,41.34
2022-08-17T18:25:28.025Z,41.31
2022-08-17T18:27:54.442Z,41.31
2022-08-17T18:30:23.375Z,41.30
2022-08-17T18:32:49.762Z,41.26
2022-08-17T18:35:16.154Z,41.25
2022-08-17T18:37:42.574Z,41.25
2022-08-17T18:40:09.026Z,41.24
2022-08-17T18:42:35.379Z,41.24
2022-08-17T18:45:01.772Z,41.20
2022-08-17T18:47:28.155Z,41.21
2022-08-17T18:49:54.539Z,41.22
2022-08-17T18:52:20.924Z,41.20
2022-08-17T18:54:47.305Z,41.20
2022-08-17T18:57:13.700Z,41.20
2022-08-17T18:59:40.164Z,41.21
2022-08-17T19:02:13.719Z,41.19
2022-08-17T19:04:34.108Z,41.17
2022-08-17T19:06:59.466Z,41.18
2022-08-17T19:09:25.849Z,41.15
2022-08-17T19:11:52.241Z,41.15
2022-08-17T19:14:18.631Z,41.14
2022-08-17T19:16:45.102Z,41.15
2022-08-17T19:19:11.509Z,41.13
2022-08-17T19:21:37.895Z,41.15
2022-08-17T19:24:04.282Z,41.16
2022-08-17T19:26:50.531Z,41.13
2022-08-17T19:28:57.056Z,41.13
2022-08-17T19:31:23.530Z,41.15
2022-08-17T19:33:49.925Z,41.15
2022-08-17T19:36:16.315Z,41.17
2022-08-17T19:38:42.700Z,41.17
2022-08-17T19:41:09.110Z,41.16
2022-08-17T19:43:35.486Z,41.17
2022-08-17T19:46:01.928Z,41.13
2022-08-17T19:48:28.309Z,41.15
2022-08-17T19:50:54.725Z,41.12
2022-08-17T19:53:21.113Z,41.12
2022-08-17T19:55:47.494Z,41.14
2022-08-17T19:58:18.076Z,41.12
2022-08-17T20:00:40.284Z,41.14
2022-08-17T20:03:06.696Z,41.18
2022-08-17T20:05:48.738Z,41.21
2022-08-17T20:07:59.442Z,41.22
2022-08-17T20:10:25.823Z,41.27
2022-08-17T20:12:52.201Z,41.27
2022-08-17T20:15:18.597Z,41.28
2022-08-17T20:17:45.055Z,41.30
2022-08-17T20:20:19.991Z,41.28
2022-08-17T20:22:51.972Z,41.29
2022-08-17T20:25:04.209Z,41.27
2022-08-17T20:27:31.683Z,41.34
2022-08-17T20:29:57.051Z,41.32
2022-08-17T20:32:23.515Z,41.32
2022-08-17T20:34:49.912Z,41.34
2022-08-17T20:37:16.315Z,41.41
2022-08-17T20:39:42.843Z,41.37
2022-08-17T20:42:09.207Z,41.40
2022-08-17T20:44:35.605Z,41.42
2022-08-17T20:47:01.988Z,41.44
2022-08-17T20:49:28.382Z,41.43
2022-08-17T20:52:01.509Z,41.43
2022-08-17T20:54:21.169Z,41.44
2022-08-17T20:56:47.546Z,41.38
2022-08-17T20:59:13.934Z,41.41
2022-08-17T21:01:40.419Z,41.40
2022-08-17T21:04:06.742Z,41.43
2022-08-17T21:06:33.121Z,41.47
2022-08-17T21:08:59.513Z,41.57
2022-08-17T21:11:57.146Z,41.44
2022-08-17T21:13:52.289Z,41.47
2022-08-17T21:16:18.670Z,41.44
2022-08-17T21:18:45.091Z,41.47
2022-08-17T21:21:16.880Z,41.47
2022-08-17T21:23:37.952Z,41.45
2022-08-17T21:26:04.429Z,41.41
2022-08-17T21:28:34.135Z,41.41
2022-08-17T21:30:57.233Z,41.38
2022-08-17T21:33:23.739Z,41.37
2022-08-17T21:35:50.117Z,41.42
2022-08-17T21:38:16.533Z,41.50
2022-08-17T21:40:42.909Z,41.46
2022-08-17T21:43:09.361Z,41.41
2022-08-17T21:45:35.754Z,41.41
2022-08-17T21:48:02.132Z,41.33
2022-08-17T21:50:28.592Z,41.43
2022-08-17T21:52:54.975Z,41.37
2022-08-17T21:55:21.367Z,41.44
2022-08-17T21:57:53.250Z,41.39
2022-08-17T22:00:14.258Z,41.41
2022-08-17T22:02:40.653Z,41.42
2022-08-17T22:05:07.041Z,41.50
2022-08-17T22:07:33.455Z,41.47
2022-08-17T22:09:59.839Z,41.47
2022-08-17T22:12:26.228Z,41.47
2022-08-17T22:14:54.109Z,41.44
2022-08-17T22:17:19.018Z,41.47
2022-08-17T22:19:45.401Z,41.48
2022-08-17T22:22:11.785Z,41.50
2022-08-17T22:24:38.171Z,41.61
2022-08-17T22:27:04.555Z,41.56
2022-08-17T22:29:30.982Z,41.53
2022-08-17T22:31:57.370Z,41.50
2022-08-17T22:34:23.750Z,41.53
2022-08-17T22:36:50.137Z,41.52
2022-08-17T22:39:16.520Z,41.55
2022-08-17T22:41:42.909Z,41.60
2022-08-17T22:44:09.285Z,41.57
2022-08-17T22:46:35.673Z,41.61
2022-08-17T22:49:02.058Z,41.61
2022-08-17T22:51:28.438Z,41.66
2022-08-17T22:53:54.814Z,41.76
2022-08-17T22:56:21.206Z,41.76
2022-08-17T22:58:58.988Z,41.66
2022-08-17T23:01:13.977Z,41.83
2022-08-17T23:03:40.358Z,41.78
2022-08-17T23:06:06.883Z,41.72
2022-08-17T23:08:33.253Z,41.85
2022-08-17T23:10:59.635Z,41.66
2022-08-17T23:13:26.043Z,41.69
2022-08-17T23:15:52.421Z,41.73
2022-08-17T23:18:18.807Z,41.70
2022-08-17T23:20:45.194Z,41.88
2022-08-17T23:23:11.589Z,41.76
2022-08-17T23:25:37.975Z,41.75
2022-08-17T23:28:04.360Z,41.72
2022-08-17T23:30:30.746Z,41.85
2022-08-17T23:32:57.130Z,41.81
2022-08-17T23:35:39.737Z,41.76
2022-08-17T23:37:50.091Z,41.78
2022-08-17T23:40:16.334Z,41.65
2022-08-17T23:42:46.453Z,41.64
2022-08-17T23:45:09.078Z,41.62
2022-08-17T23:47:35.458Z,41.70
2022-08-17T23:50:01.993Z,41.59
2022-08-17T23:52:28.249Z,41.61
2022-08-17T23:54:56.267Z,41.75
2022-08-17T23:57:33.769Z,41.64
2022-08-17T23:59:47.503Z,41.66
